createdAt,value
2018-02-19T00:00:54.026Z,0.00
2018-02-19T00:01:54.020Z,0.00
2018-02-19T00:02:53.990Z,0.00
2018-02-19T00:03:53.972Z,0.00
2018-02-19T00:04:53.943Z,0.00
2018-02-19T00:05:53.927Z,0.00
2018-02-19T00:06:53.924Z,0.00
2018-02-19T00:07:53.888Z,0.00
2018-02-19T00:08:53.869Z,0.00
2018-02-19T00:09:53.848Z,0.00
2018-02-19T00:10:53.827Z,0.00
2018-02-19T00:11:53.805Z,0.00
2018-02-19T00:12:53.798Z,0.00
2018-02-19T00:13:53.764Z,0.00
2018-02-19T00:14:53.757Z,0.00
2018-02-19T00:15:53.725Z,0.00
2018-02-19T00:16:54.488Z,0.00
2018-02-19T00:17:53.686Z,0.00
2018-02-19T00:18:53.678Z,0.00
2018-02-19T00:19:53.645Z,0.00
2018-02-19T00:20:53.640Z,0.00
2018-02-19T00:21:53.604Z,0.00
2018-02-19T00:22:53.585Z,0.00
2018-02-19T00:23:53.568Z,0.00
2018-02-19T00:24:53.560Z,0.00
2018-02-19T00:25:53.524Z,0.00
2018-02-19T00:26:53.499Z,0.00
2018-02-19T00:27:53.483Z,0.00
2018-02-19T00:28:54.055Z,0.00
2018-02-19T00:29:53.443Z,0.00
2018-02-19T00:30:53.440Z,0.00
2018-02-19T00:31:53.399Z,0.00
2018-02-19T00:32:53.379Z,0.00
2018-02-19T00:33:53.362Z,0.00
2018-02-19T00:34:53.343Z,0.00
2018-02-19T00:35:53.325Z,0.00
2018-02-19T00:36:53.322Z,0.00
2018-02-19T00:37:53.278Z,0.00
2018-02-19T00:38:53.264Z,0.00
2018-02-19T00:39:53.238Z,0.00
2018-02-19T00:40:53.218Z,0.00
2018-02-19T00:41:53.198Z,0.00
2018-02-19T00:42:53.196Z,0.00
2018-02-19T00:43:53.163Z,0.00
2018-02-19T00:44:53.141Z,0.00
2018-02-19T00:45:53.121Z,0.00
2018-02-19T00:46:53.111Z,0.00
2018-02-19T00:47:53.079Z,0.00
2018-02-19T00:48:53.076Z,0.00
2018-02-19T00:49:53.040Z,0.00
2018-02-19T00:50:53.022Z,0.00
2018-02-19T00:51:53.001Z,0.00
2018-02-19T00:52:52.997Z,0.00
2018-02-19T00:53:52.960Z,0.00
2018-02-19T00:54:52.939Z,0.00
2018-02-19T00:55:53.524Z,0.00
2018-02-19T00:56:52.899Z,0.00
2018-02-19T00:57:52.928Z,0.00
2018-02-19T00:58:52.874Z,0.00
2018-02-19T00:59:52.841Z,0.00
2018-02-19T01:00:52.819Z,0.00
2018-02-19T01:01:52.814Z,0.00
2018-02-19T01:02:52.777Z,0.00
2018-02-19T01:03:52.755Z,0.00
2018-02-19T01:04:52.738Z,0.00
2018-02-19T01:05:52.719Z,0.00
2018-02-19T01:06:52.713Z,0.00
2018-02-19T01:07:52.677Z,0.00
2018-02-19T01:08:52.657Z,0.00
2018-02-19T01:09:52.656Z,0.00
2018-02-19T01:10:52.611Z,0.00
2018-02-19T01:11:52.595Z,0.00
2018-02-19T01:12:52.576Z,0.00
2018-02-19T01:13:52.553Z,0.00
2018-02-19T01:14:52.536Z,0.00
2018-02-19T01:15:52.524Z,0.00
2018-02-19T01:16:52.991Z,0.00
2018-02-19T01:17:52.472Z,0.00
2018-02-19T01:18:52.456Z,0.00
2018-02-19T01:19:52.436Z,0.00
2018-02-19T01:20:52.417Z,0.00
2018-02-19T01:21:52.412Z,0.00
2018-02-19T01:22:52.375Z,0.00
2018-02-19T01:23:52.355Z,0.00
2018-02-19T01:24:52.332Z,0.00
2018-02-19T01:25:53.524Z,0.00
2018-02-19T01:26:52.293Z,0.00
2018-02-19T01:27:52.288Z,0.00
2018-02-19T01:28:52.248Z,0.00
2018-02-19T01:29:52.231Z,0.00
2018-02-19T01:30:52.210Z,0.00
2018-02-19T01:31:52.195Z,0.00
2018-02-19T01:32:52.187Z,0.00
2018-02-19T01:33:52.149Z,0.00
2018-02-19T01:34:52.149Z,0.00
2018-02-19T01:35:52.110Z,0.00
2018-02-19T01:36:52.089Z,0.00
2018-02-19T01:37:53.069Z,0.00
2018-02-19T01:38:52.052Z,0.00
2018-02-19T01:39:52.029Z,0.00
2018-02-19T01:40:52.023Z,0.00
2018-02-19T01:41:51.990Z,0.00
2018-02-19T01:42:51.967Z,0.00
2018-02-19T01:43:51.949Z,0.00
2018-02-19T01:44:51.929Z,0.00
2018-02-19T01:45:51.908Z,0.00
2018-02-19T01:46:51.901Z,0.00
2018-02-19T01:47:51.863Z,0.00
2018-02-19T01:48:51.848Z,0.00
2018-02-19T01:49:51.832Z,0.00
2018-02-19T01:50:51.819Z,0.00
2018-02-19T01:51:51.802Z,0.00
2018-02-19T01:52:51.762Z,0.00
2018-02-19T01:53:51.745Z,0.00
2018-02-19T01:54:51.726Z,0.00
2018-02-19T01:55:51.707Z,0.00
2018-02-19T01:56:51.714Z,0.00
2018-02-19T01:57:51.669Z,0.00
2018-02-19T01:58:51.647Z,0.00
2018-02-19T01:59:51.624Z,0.00
2018-02-19T02:00:51.604Z,0.00
2018-02-19T02:01:51.583Z,0.00
2018-02-19T02:02:51.578Z,0.00
2018-02-19T02:03:51.553Z,0.00
2018-02-19T02:04:51.523Z,0.00
2018-02-19T02:05:51.499Z,0.00
2018-02-19T02:06:51.481Z,0.00
2018-02-19T02:07:51.456Z,0.00
2018-02-19T02:08:51.454Z,0.00
2018-02-19T02:09:51.414Z,0.00
2018-02-19T02:10:51.395Z,0.00
2018-02-19T02:11:51.373Z,0.00
2018-02-19T02:12:51.358Z,0.00
2018-02-19T02:13:51.352Z,0.00
2018-02-19T02:14:51.330Z,0.00
2018-02-19T02:15:51.294Z,0.00
2018-02-19T02:16:51.275Z,0.00
2018-02-19T02:17:51.255Z,0.00
2018-02-19T02:18:51.233Z,0.00
2018-02-19T02:19:51.232Z,0.00
2018-02-19T02:20:51.195Z,0.00
2018-02-19T02:21:51.174Z,0.00
2018-02-19T02:22:51.152Z,0.00
2018-02-19T02:23:51.134Z,0.00
2018-02-19T02:24:51.122Z,0.00
2018-02-19T02:25:51.088Z,0.00
2018-02-19T02:26:51.073Z,0.00
2018-02-19T02:27:51.046Z,0.00
2018-02-19T02:28:51.030Z,0.00
2018-02-19T02:29:51.008Z,0.00
2018-02-19T02:30:51.002Z,0.00
2018-02-19T02:31:50.965Z,0.00
2018-02-19T02:32:50.947Z,0.00
2018-02-19T02:33:50.925Z,0.00
2018-02-19T02:34:50.902Z,0.00
2018-02-19T02:35:50.901Z,0.00
2018-02-19T02:36:50.893Z,0.00
2018-02-19T02:37:50.842Z,0.00
2018-02-19T02:38:50.823Z,0.00
2018-02-19T02:39:50.803Z,0.00
2018-02-19T02:40:50.782Z,0.00
2018-02-19T02:41:50.761Z,0.00
2018-02-19T02:42:50.756Z,0.00
2018-02-19T02:43:50.722Z,0.00
2018-02-19T02:44:50.699Z,0.00
2018-02-19T02:45:50.679Z,0.00
2018-02-19T02:46:50.660Z,0.00
2018-02-19T02:47:50.633Z,0.00
2018-02-19T02:48:50.633Z,0.00
2018-02-19T02:49:51.531Z,0.00
2018-02-19T02:50:50.574Z,0.00
2018-02-19T02:51:50.557Z,0.00
2018-02-19T02:52:50.535Z,0.00
2018-02-19T02:53:50.515Z,0.00
2018-02-19T02:54:51.496Z,0.00
2018-02-19T02:55:50.475Z,0.00
2018-02-19T02:56:50.452Z,0.00
2018-02-19T02:57:50.426Z,0.00
2018-02-19T02:58:50.430Z,0.00
2018-02-19T02:59:50.389Z,0.00
2018-02-19T03:00:50.369Z,0.00
2018-02-19T03:01:50.350Z,0.00
2018-02-19T03:02:50.328Z,0.00
2018-02-19T03:03:50.309Z,0.00
2018-02-19T03:04:51.035Z,0.00
2018-02-19T03:05:50.264Z,0.00
2018-02-19T03:06:50.246Z,0.00
2018-02-19T03:07:50.227Z,0.00
2018-02-19T03:08:50.221Z,0.00
2018-02-19T03:09:50.186Z,0.00
2018-02-19T03:10:50.173Z,0.00
2018-02-19T03:11:50.145Z,0.00
2018-02-19T03:12:50.125Z,0.00
2018-02-19T03:13:50.119Z,0.00
2018-02-19T03:14:51.014Z,0.00
2018-02-19T03:15:50.072Z,0.00
2018-02-19T03:16:50.052Z,0.00
2018-02-19T03:17:50.023Z,0.00
2018-02-19T03:18:50.497Z,0.00
2018-02-19T03:19:49.979Z,0.00
2018-02-19T03:20:49.963Z,0.00
2018-02-19T03:21:49.955Z,0.00
2018-02-19T03:22:49.920Z,0.00
2018-02-19T03:23:50.501Z,0.00
2018-02-19T03:24:49.881Z,0.00
2018-02-19T03:25:49.874Z,0.00
2018-02-19T03:26:49.836Z,0.00
2018-02-19T03:27:49.833Z,0.00
2018-02-19T03:28:49.797Z,0.00
2018-02-19T03:29:49.776Z,0.00
2018-02-19T03:30:49.758Z,0.00
2018-02-19T03:31:49.741Z,0.00
2018-02-19T03:32:49.727Z,0.00
2018-02-19T03:33:49.740Z,0.00
2018-02-19T03:34:49.678Z,0.00
2018-02-19T03:35:49.655Z,0.00
2018-02-19T03:36:49.641Z,0.00
2018-02-19T03:37:49.617Z,0.00
2018-02-19T03:38:49.592Z,0.00
2018-02-19T03:39:49.589Z,0.00
2018-02-19T03:40:49.551Z,0.00
2018-02-19T03:41:49.534Z,0.00
2018-02-19T03:42:49.513Z,0.00
2018-02-19T03:43:49.503Z,0.00
2018-02-19T03:44:49.493Z,0.00
2018-02-19T03:45:49.453Z,0.00
2018-02-19T03:46:49.430Z,0.00
2018-02-19T03:47:49.413Z,0.00
2018-02-19T03:48:49.391Z,0.00
2018-02-19T03:49:49.370Z,0.00
2018-02-19T03:50:49.363Z,0.00
2018-02-19T03:51:49.328Z,0.00
2018-02-19T03:52:49.312Z,0.00
2018-02-19T03:53:49.285Z,0.00
2018-02-19T03:54:49.268Z,0.00
2018-02-19T03:55:49.262Z,0.00
2018-02-19T03:56:49.229Z,0.00
2018-02-19T03:57:49.207Z,0.00
2018-02-19T03:58:49.190Z,0.00
2018-02-19T03:59:49.170Z,0.00
2018-02-19T04:00:49.160Z,0.00
2018-02-19T04:01:50.066Z,0.00
2018-02-19T04:02:49.118Z,0.00
2018-02-19T04:03:49.086Z,0.00
2018-02-19T04:04:49.065Z,0.00
2018-02-19T04:05:49.053Z,0.00
2018-02-19T04:06:49.025Z,0.00
2018-02-19T04:07:49.019Z,0.00
2018-02-19T04:08:48.984Z,0.00
2018-02-19T04:09:48.964Z,0.00
2018-02-19T04:10:48.945Z,0.00
2018-02-19T04:11:48.937Z,0.00
2018-02-19T04:12:48.903Z,0.00
2018-02-19T04:13:48.893Z,0.00
2018-02-19T04:14:48.862Z,0.00
2018-02-19T04:15:48.842Z,0.00
2018-02-19T04:16:48.821Z,0.00
2018-02-19T04:17:48.800Z,0.00
2018-02-19T04:19:09.789Z,0.00
2018-02-19T04:19:48.761Z,0.00
2018-02-19T04:20:48.742Z,0.00
2018-02-19T04:21:48.735Z,0.00
2018-02-19T04:22:48.710Z,0.00
2018-02-19T04:23:48.693Z,0.00
2018-02-19T04:24:48.677Z,0.00
2018-02-19T04:25:48.638Z,0.00
2018-02-19T04:26:48.618Z,0.00
2018-02-19T04:27:48.599Z,0.00
2018-02-19T04:28:48.575Z,0.00
2018-02-19T04:29:48.575Z,0.00
2018-02-19T04:30:48.536Z,0.00
2018-02-19T04:31:48.518Z,0.00
2018-02-19T04:32:48.496Z,0.00
2018-02-19T04:33:48.476Z,0.00
2018-02-19T04:34:48.472Z,0.00
2018-02-19T04:35:48.438Z,0.00
2018-02-19T04:36:48.415Z,0.00
2018-02-19T04:37:48.393Z,0.00
2018-02-19T04:38:48.386Z,0.00
2018-02-19T04:39:48.352Z,0.00
2018-02-19T04:40:48.335Z,0.00
2018-02-19T04:41:48.311Z,0.00
2018-02-19T04:42:48.293Z,0.00
2018-02-19T04:43:48.270Z,0.00
2018-02-19T04:44:48.264Z,0.00
2018-02-19T04:45:48.242Z,0.00
2018-02-19T04:46:48.210Z,0.00
2018-02-19T04:47:48.192Z,0.00
2018-02-19T04:48:48.171Z,0.00
2018-02-19T04:49:48.163Z,0.00
2018-02-19T04:50:49.045Z,0.00
2018-02-19T04:51:48.103Z,0.00
2018-02-19T04:52:48.100Z,0.00
2018-02-19T04:53:48.573Z,0.00
2018-02-19T04:54:48.046Z,0.00
2018-02-19T04:55:48.039Z,0.00
2018-02-19T04:56:48.006Z,0.00
2018-02-19T04:57:47.981Z,0.00
2018-02-19T04:58:47.968Z,0.00
2018-02-19T04:59:47.941Z,0.00
2018-02-19T05:00:47.936Z,0.00
2018-02-19T05:01:47.907Z,0.00
2018-02-19T05:02:47.884Z,0.00
2018-02-19T05:03:47.864Z,0.00
2018-02-19T05:04:47.847Z,0.00
2018-02-19T05:05:47.836Z,0.00
2018-02-19T05:06:48.502Z,0.00
2018-02-19T05:07:47.778Z,0.00
2018-02-19T05:08:47.762Z,0.00
2018-02-19T05:09:47.738Z,0.00
2018-02-19T05:10:47.717Z,0.00
2018-02-19T05:11:47.714Z,0.00
2018-02-19T05:12:47.708Z,0.00
2018-02-19T05:13:48.501Z,0.00
2018-02-19T05:14:47.638Z,0.00
2018-02-19T05:15:47.637Z,0.00
2018-02-19T05:16:47.615Z,0.00
2018-02-19T05:17:47.579Z,0.00
2018-02-19T05:18:47.561Z,0.00
2018-02-19T05:19:47.539Z,0.00
2018-02-19T05:20:47.521Z,0.00
2018-02-19T05:21:47.516Z,0.00
2018-02-19T05:22:47.477Z,0.00
2018-02-19T05:23:48.005Z,0.00
2018-02-19T05:24:47.436Z,0.00
2018-02-19T05:25:47.413Z,0.00
2018-02-19T05:26:47.396Z,0.00
2018-02-19T05:27:47.369Z,0.00
2018-02-19T05:28:47.351Z,0.00
2018-02-19T05:29:47.350Z,0.00
2018-02-19T05:30:47.312Z,0.00
2018-02-19T05:31:47.293Z,0.00
2018-02-19T05:32:47.287Z,0.00
2018-02-19T05:33:47.252Z,0.00
2018-02-19T05:34:47.227Z,0.00
2018-02-19T05:35:47.208Z,0.00
2018-02-19T05:36:47.207Z,0.00
2018-02-19T05:37:47.171Z,0.00
2018-02-19T05:38:47.172Z,0.00
2018-02-19T05:39:47.134Z,0.00
2018-02-19T05:40:47.112Z,0.00
2018-02-19T05:41:47.092Z,0.00
2018-02-19T05:42:47.089Z,0.00
2018-02-19T05:43:47.077Z,0.00
2018-02-19T05:44:47.031Z,0.00
2018-02-19T05:45:47.004Z,0.00
2018-02-19T05:46:46.990Z,0.00
2018-02-19T05:47:46.968Z,0.00
2018-02-19T05:48:46.949Z,0.00
2018-02-19T05:49:46.938Z,0.00
2018-02-19T05:50:46.910Z,0.00
2018-02-19T05:51:46.884Z,0.00
2018-02-19T05:52:46.864Z,0.00
2018-02-19T05:53:46.858Z,0.00
2018-02-19T05:54:46.822Z,0.00
2018-02-19T05:55:46.802Z,0.00
2018-02-19T05:56:46.788Z,0.00
2018-02-19T05:57:46.807Z,0.00
2018-02-19T05:58:46.761Z,0.00
2018-02-19T05:59:46.738Z,0.00
2018-02-19T06:00:46.704Z,0.00
2018-02-19T06:01:46.678Z,0.00
2018-02-19T06:02:46.682Z,0.00
2018-02-19T06:03:46.640Z,0.00
2018-02-19T06:04:46.618Z,0.00
2018-02-19T06:05:46.602Z,0.00
2018-02-19T06:06:46.579Z,0.00
2018-02-19T06:07:46.579Z,0.00
2018-02-19T06:08:46.555Z,0.00
2018-02-19T06:09:46.520Z,0.00
2018-02-19T06:10:46.513Z,0.00
2018-02-19T06:11:46.479Z,0.00
2018-02-19T06:12:46.455Z,4.00
2018-02-19T06:13:46.434Z,4.00
2018-02-19T06:14:46.436Z,0.00
2018-02-19T06:15:46.391Z,4.00
2018-02-19T06:16:46.374Z,4.00
2018-02-19T06:17:46.359Z,4.00
2018-02-19T06:18:46.359Z,8.00
2018-02-19T06:19:46.321Z,4.00
2018-02-19T06:20:46.317Z,4.00
2018-02-19T06:21:46.290Z,8.00
2018-02-19T06:22:46.263Z,12.00
2018-02-19T06:23:46.275Z,12.00
2018-02-19T06:24:46.229Z,16.00
2018-02-19T06:25:46.215Z,12.00
2018-02-19T06:26:46.182Z,16.00
2018-02-19T06:27:46.179Z,20.00
2018-02-19T06:28:46.155Z,24.00
2018-02-19T06:29:46.114Z,28.00
2018-02-19T06:30:46.099Z,28.00
2018-02-19T06:31:46.093Z,32.00
2018-02-19T06:32:46.075Z,40.00
2018-02-19T06:33:46.050Z,44.00
2018-02-19T06:34:46.051Z,52.00
2018-02-19T06:35:46.512Z,60.00
2018-02-19T06:36:45.976Z,68.00
2018-02-19T06:37:45.969Z,76.00
2018-02-19T06:38:45.938Z,84.00
2018-02-19T06:39:45.947Z,92.00
2018-02-19T06:40:45.916Z,100.00
2018-02-19T06:41:45.877Z,104.00
2018-02-19T06:42:45.872Z,116.00
2018-02-19T06:43:45.823Z,124.00
2018-02-19T06:44:45.811Z,128.00
2018-02-19T06:45:45.825Z,136.00
2018-02-19T06:46:45.840Z,144.00
2018-02-19T06:47:45.758Z,160.00
2018-02-19T06:48:45.741Z,168.00
2018-02-19T06:49:45.717Z,184.00
2018-02-19T06:50:45.688Z,196.00
2018-02-19T06:51:45.700Z,220.00
2018-02-19T06:52:46.513Z,236.00
2018-02-19T06:53:45.623Z,256.00
2018-02-19T06:54:45.606Z,280.00
2018-02-19T06:55:45.585Z,292.00
2018-02-19T06:56:45.589Z,308.00
2018-02-19T06:57:45.570Z,316.00
2018-02-19T06:58:45.524Z,336.00
2018-02-19T06:59:45.511Z,356.00
2018-02-19T07:00:45.504Z,372.00
2018-02-19T07:01:45.493Z,408.00
2018-02-19T07:02:45.485Z,428.00
2018-02-19T07:03:45.426Z,428.00
2018-02-19T07:04:45.423Z,416.00
2018-02-19T07:05:45.390Z,416.00
2018-02-19T07:06:45.375Z,432.00
2018-02-19T07:07:45.360Z,464.00
2018-02-19T07:08:45.351Z,496.00
2018-02-19T07:09:45.331Z,524.00
2018-02-19T07:10:45.298Z,540.00
2018-02-19T07:11:45.289Z,552.00
2018-02-19T07:12:45.250Z,580.00
2018-02-19T07:13:45.226Z,608.00
2018-02-19T07:14:45.187Z,636.00
2018-02-19T07:15:45.166Z,668.00
2018-02-19T07:16:45.145Z,680.00
2018-02-19T07:17:45.127Z,680.00
2018-02-19T07:18:45.121Z,672.00
2018-02-19T07:19:45.085Z,692.00
2018-02-19T07:20:45.067Z,724.00
2018-02-19T07:21:45.042Z,752.00
2018-02-19T07:22:45.022Z,788.00
2018-02-19T07:23:45.005Z,848.00
2018-02-19T07:25:06.026Z,912.00
2018-02-19T07:25:44.961Z,908.00
2018-02-19T07:26:44.943Z,892.00
2018-02-19T07:27:44.921Z,880.00
2018-02-19T07:28:44.905Z,888.00
2018-02-19T07:29:44.900Z,916.00
2018-02-19T07:30:44.860Z,948.00
2018-02-19T07:31:44.835Z,968.00
2018-02-19T07:32:44.819Z,972.00
2018-02-19T07:33:44.799Z,1008.00
2018-02-19T07:34:44.787Z,1040.00
2018-02-19T07:35:44.772Z,1088.00
2018-02-19T07:36:44.741Z,1120.00
2018-02-19T07:37:44.721Z,1152.00
2018-02-19T07:38:44.698Z,1188.00
2018-02-19T07:39:44.676Z,1292.00
2018-02-19T07:40:44.676Z,1372.00
2018-02-19T07:41:44.637Z,1444.00
2018-02-19T07:42:44.630Z,1492.00
2018-02-19T07:43:44.599Z,1524.00
2018-02-19T07:44:44.573Z,1572.00
2018-02-19T07:45:44.553Z,1628.00
2018-02-19T07:46:44.552Z,1660.00
2018-02-19T07:47:44.535Z,1724.00
2018-02-19T07:48:44.495Z,1888.00
2018-02-19T07:49:44.476Z,2044.00
2018-02-19T07:50:44.455Z,2188.00
2018-02-19T07:51:44.431Z,2332.00
2018-02-19T07:52:44.415Z,2396.00
2018-02-19T07:53:44.419Z,2408.00
2018-02-19T07:54:44.371Z,2468.00
2018-02-19T07:55:44.355Z,2556.00
2018-02-19T07:56:45.046Z,2552.00
2018-02-19T07:57:44.316Z,2396.00
2018-02-19T07:58:44.319Z,2204.00
2018-02-19T07:59:44.284Z,2064.00
2018-02-19T08:00:44.337Z,2096.00
2018-02-19T08:01:44.240Z,2124.00
2018-02-19T08:02:44.225Z,2108.00
2018-02-19T08:03:44.191Z,2272.00
2018-02-19T08:04:44.171Z,2456.00
2018-02-19T08:05:44.162Z,2600.00
2018-02-19T08:06:44.136Z,2636.00
2018-02-19T08:07:44.113Z,2608.00
2018-02-19T08:08:44.094Z,2544.00
2018-02-19T08:09:44.072Z,2500.00
2018-02-19T08:10:44.069Z,2404.00
2018-02-19T08:11:44.046Z,2336.00
2018-02-19T08:12:44.008Z,2368.00
2018-02-19T08:13:43.989Z,2356.00
2018-02-19T08:14:43.972Z,2344.00
2018-02-19T08:15:43.959Z,2208.00
2018-02-19T08:16:43.948Z,2120.00
2018-02-19T08:17:43.912Z,2176.00
2018-02-19T08:18:43.894Z,2324.00
2018-02-19T08:19:43.876Z,2384.00
2018-02-19T08:20:43.852Z,2456.00
2018-02-19T08:21:43.848Z,2652.00
2018-02-19T08:22:43.811Z,2824.00
2018-02-19T08:23:43.793Z,2924.00
2018-02-19T08:24:43.770Z,3000.00
2018-02-19T08:25:43.755Z,2952.00
2018-02-19T08:26:43.746Z,2856.00
2018-02-19T08:27:43.715Z,2872.00
2018-02-19T08:28:43.692Z,3016.00
2018-02-19T08:29:43.714Z,3156.00
2018-02-19T08:30:43.667Z,3268.00
2018-02-19T08:31:43.635Z,3340.00
2018-02-19T08:32:43.616Z,3608.00
2018-02-19T08:33:43.612Z,3836.00
2018-02-19T08:34:43.574Z,3892.00
2018-02-19T08:35:43.551Z,3984.00
2018-02-19T08:36:43.533Z,4112.00
2018-02-19T08:37:43.530Z,4144.00
2018-02-19T08:38:43.508Z,4176.00
2018-02-19T08:39:43.476Z,4188.00
2018-02-19T08:40:43.455Z,4080.00
2018-02-19T08:41:43.434Z,4096.00
2018-02-19T08:42:43.418Z,3904.00
2018-02-19T08:43:43.395Z,3860.00
2018-02-19T08:44:43.392Z,3872.00
2018-02-19T08:45:43.357Z,3880.00
2018-02-19T08:46:43.336Z,3952.00
2018-02-19T08:47:43.337Z,4064.00
2018-02-19T08:48:43.298Z,4044.00
2018-02-19T08:49:43.279Z,4008.00
2018-02-19T08:50:43.275Z,4012.00
2018-02-19T08:51:43.240Z,4108.00
2018-02-19T08:52:43.220Z,4200.00
2018-02-19T08:53:43.206Z,4300.00
2018-02-19T08:54:43.178Z,4276.00
2018-02-19T08:55:43.159Z,4272.00
2018-02-19T08:56:43.159Z,4224.00
2018-02-19T08:57:43.120Z,4180.00
2018-02-19T08:58:43.102Z,4188.00
2018-02-19T08:59:43.081Z,4260.00
2018-02-19T09:00:43.064Z,4448.00
2018-02-19T09:01:43.058Z,4568.00
2018-02-19T09:02:43.515Z,4676.00
2018-02-19T09:03:43.000Z,4692.00
2018-02-19T09:04:42.987Z,4708.00
2018-02-19T09:05:43.012Z,4752.00
2018-02-19T09:06:42.963Z,4808.00
2018-02-19T09:07:42.944Z,4840.00
2018-02-19T09:08:42.907Z,4832.00
2018-02-19T09:09:42.887Z,4908.00
2018-02-19T09:10:42.871Z,4972.00
2018-02-19T09:11:42.851Z,4952.00
2018-02-19T09:12:42.842Z,4956.00
2018-02-19T09:13:42.805Z,4936.00
2018-02-19T09:14:42.791Z,5008.00
2018-02-19T09:15:42.769Z,4888.00
2018-02-19T09:16:42.765Z,4812.00
2018-02-19T09:17:42.750Z,4640.00
2018-02-19T09:18:43.783Z,4588.00
2018-02-19T09:19:42.751Z,4580.00
2018-02-19T09:20:42.692Z,4588.00
2018-02-19T09:21:42.770Z,4584.00
2018-02-19T09:22:42.660Z,4552.00
2018-02-19T09:23:43.656Z,4588.00
2018-02-19T09:24:42.604Z,4568.00
2018-02-19T09:25:45.529Z,4560.00
2018-02-19T09:26:42.768Z,4596.00
2018-02-19T09:27:42.534Z,4636.00
2018-02-19T09:28:42.580Z,4696.00
2018-02-19T09:29:42.500Z,4740.00
2018-02-19T09:30:43.519Z,4812.00
2018-02-19T09:31:42.459Z,4908.00
2018-02-19T09:32:42.456Z,4964.00
2018-02-19T09:33:42.427Z,4956.00
2018-02-19T09:34:42.417Z,4948.00
2018-02-19T09:35:42.390Z,5012.00
2018-02-19T09:36:42.367Z,5052.00
2018-02-19T09:37:42.344Z,5048.00
2018-02-19T09:38:42.331Z,5116.00
2018-02-19T09:39:42.328Z,5164.00
2018-02-19T09:40:42.293Z,5180.00
2018-02-19T09:41:42.327Z,5252.00
2018-02-19T09:42:42.253Z,5316.00
2018-02-19T09:43:42.227Z,5400.00
2018-02-19T09:44:42.227Z,5484.00
2018-02-19T09:45:42.189Z,5460.00
2018-02-19T09:46:42.170Z,5508.00
2018-02-19T09:47:42.153Z,5384.00
2018-02-19T09:48:42.138Z,5460.00
2018-02-19T09:49:42.143Z,5456.00
2018-02-19T09:50:42.112Z,5532.00
2018-02-19T09:51:42.078Z,5660.00
2018-02-19T09:52:42.075Z,5688.00
2018-02-19T09:53:42.052Z,5736.00
2018-02-19T09:54:42.048Z,5804.00
2018-02-19T09:55:42.001Z,5852.00
2018-02-19T09:56:42.598Z,5872.00
2018-02-19T09:57:41.962Z,5904.00
2018-02-19T09:58:41.949Z,5900.00
2018-02-19T09:59:41.946Z,6008.00
2018-02-19T10:00:41.921Z,6028.00
2018-02-19T10:01:41.911Z,6064.00
2018-02-19T10:02:41.872Z,5992.00
2018-02-19T10:03:41.853Z,6048.00
2018-02-19T10:04:41.859Z,6012.00
2018-02-19T10:05:41.859Z,6044.00
2018-02-19T10:06:41.796Z,6072.00
2018-02-19T10:07:41.795Z,6132.00
2018-02-19T10:08:41.757Z,6212.00
2018-02-19T10:09:41.739Z,6360.00
2018-02-19T10:10:41.742Z,6540.00
2018-02-19T10:11:41.698Z,6644.00
2018-02-19T10:12:41.684Z,6832.00
2018-02-19T10:13:41.665Z,6976.00
2018-02-19T10:14:41.656Z,7060.00
2018-02-19T10:15:41.633Z,7160.00
2018-02-19T10:16:41.618Z,7188.00
2018-02-19T10:17:41.594Z,7216.00
2018-02-19T10:18:41.584Z,7304.00
2018-02-19T10:19:41.568Z,7352.00
2018-02-19T10:20:41.538Z,7252.00
2018-02-19T10:21:41.517Z,7216.00
2018-02-19T10:22:41.514Z,7108.00
2018-02-19T10:23:41.478Z,7100.00
2018-02-19T10:24:41.476Z,7004.00
2018-02-19T10:25:41.438Z,6880.00
2018-02-19T10:26:41.423Z,6740.00
2018-02-19T10:27:41.404Z,6696.00
2018-02-19T10:28:41.396Z,6680.00
2018-02-19T10:29:41.435Z,6620.00
2018-02-19T10:30:41.358Z,6600.00
2018-02-19T10:31:41.332Z,6632.00
2018-02-19T10:32:41.310Z,6660.00
2018-02-19T10:33:41.294Z,6796.00
2018-02-19T10:34:41.286Z,6880.00
2018-02-19T10:35:41.253Z,6972.00
2018-02-19T10:36:41.256Z,6960.00
2018-02-19T10:37:41.221Z,6916.00
2018-02-19T10:38:41.202Z,6864.00
2018-02-19T10:39:41.184Z,6856.00
2018-02-19T10:40:41.166Z,6728.00
2018-02-19T10:41:41.157Z,6736.00
2018-02-19T10:42:41.131Z,6804.00
2018-02-19T10:43:41.111Z,6752.00
2018-02-19T10:44:41.141Z,6708.00
2018-02-19T10:45:41.096Z,6644.00
2018-02-19T10:46:41.074Z,6736.00
2018-02-19T10:47:41.037Z,6756.00
2018-02-19T10:48:41.018Z,6724.00
2018-02-19T10:49:40.999Z,6704.00
2018-02-19T10:50:40.982Z,6704.00
2018-02-19T10:51:40.964Z,6744.00
2018-02-19T10:52:40.961Z,6828.00
2018-02-19T10:53:40.923Z,6856.00
2018-02-19T10:54:40.928Z,6912.00
2018-02-19T10:55:40.889Z,6824.00
2018-02-19T10:56:40.874Z,6988.00
2018-02-19T10:57:40.851Z,6976.00
2018-02-19T10:58:40.833Z,7096.00
2018-02-19T10:59:40.842Z,7160.00
2018-02-19T11:00:40.803Z,7276.00
2018-02-19T11:01:40.785Z,7376.00
2018-02-19T11:02:40.778Z,7384.00
2018-02-19T11:03:40.756Z,7360.00
2018-02-19T11:04:40.733Z,7356.00
2018-02-19T11:05:40.707Z,7320.00
2018-02-19T11:06:40.685Z,7312.00
2018-02-19T11:07:40.690Z,7392.00
2018-02-19T11:08:40.696Z,7468.00
2018-02-19T11:09:40.636Z,7524.00
2018-02-19T11:10:40.625Z,7528.00
2018-02-19T11:11:40.620Z,7436.00
2018-02-19T11:12:40.583Z,7352.00
2018-02-19T11:13:40.559Z,7320.00
2018-02-19T11:14:40.546Z,7300.00
2018-02-19T11:15:40.524Z,7344.00
2018-02-19T11:16:40.510Z,7500.00
2018-02-19T11:17:40.508Z,7680.00
2018-02-19T11:18:40.472Z,7996.00
2018-02-19T11:19:40.475Z,8164.00
2018-02-19T11:20:40.437Z,8252.00
2018-02-19T11:21:40.426Z,8448.00
2018-02-19T11:22:40.402Z,8816.00
2018-02-19T11:23:40.378Z,8824.00
2018-02-19T11:24:40.367Z,9268.00
2018-02-19T11:25:40.363Z,9504.00
2018-02-19T11:26:40.332Z,9852.00
2018-02-19T11:27:40.313Z,9652.00
2018-02-19T11:28:40.313Z,9848.00
2018-02-19T11:29:40.279Z,9716.00
2018-02-19T11:30:40.284Z,9708.00
2018-02-19T11:31:40.242Z,10124.00
2018-02-19T11:32:40.228Z,10092.00
2018-02-19T11:33:40.217Z,9308.00
2018-02-19T11:34:40.187Z,9140.00
2018-02-19T11:35:40.173Z,9344.00
2018-02-19T11:36:40.171Z,9900.00
2018-02-19T11:37:40.136Z,10260.00
2018-02-19T11:38:40.129Z,10788.00
2018-02-19T11:39:40.106Z,11992.00
2018-02-19T11:40:40.112Z,10984.00
2018-02-19T11:41:40.068Z,11212.00
2018-02-19T11:42:40.051Z,11984.00
2018-02-19T11:43:40.050Z,12816.00
2018-02-19T11:44:40.021Z,14280.00
2018-02-19T11:45:40.000Z,16096.00
2018-02-19T11:46:40.001Z,15360.00
2018-02-19T11:47:39.977Z,16768.00
2018-02-19T11:48:39.946Z,13172.00
2018-02-19T11:49:39.942Z,13128.00
2018-02-19T11:50:39.911Z,13540.00
2018-02-19T11:51:39.905Z,11392.00
2018-02-19T11:52:39.880Z,13100.00
2018-02-19T11:53:39.860Z,11056.00
2018-02-19T11:54:39.843Z,10932.00
2018-02-19T11:55:39.832Z,10712.00
2018-02-19T11:56:39.836Z,11340.00
2018-02-19T11:57:39.793Z,12092.00
2018-02-19T11:58:39.784Z,11160.00
2018-02-19T11:59:39.764Z,12556.00
2018-02-19T12:00:39.743Z,12104.00
2018-02-19T12:01:39.760Z,11780.00
2018-02-19T12:02:39.721Z,12268.00
2018-02-19T12:03:39.696Z,14828.00
2018-02-19T12:04:39.680Z,12524.00
2018-02-19T12:05:39.677Z,13504.00
2018-02-19T12:06:39.663Z,15808.00
2018-02-19T12:07:39.632Z,19744.00
2018-02-19T12:08:39.608Z,21472.00
2018-02-19T12:09:39.613Z,17376.00
2018-02-19T12:10:39.602Z,18336.00
2018-02-19T12:11:39.571Z,21152.00
2018-02-19T12:12:39.566Z,17280.00
2018-02-19T12:13:39.558Z,23648.00
2018-02-19T12:14:39.519Z,26016.00
2018-02-19T12:15:39.516Z,26944.00
2018-02-19T12:16:39.498Z,26240.00
2018-02-19T12:17:39.462Z,27360.00
2018-02-19T12:18:39.454Z,24480.00
2018-02-19T12:19:39.439Z,24800.00
2018-02-19T12:20:39.418Z,20832.00
2018-02-19T12:21:39.421Z,16544.00
2018-02-19T12:22:39.393Z,14140.00
2018-02-19T12:23:39.385Z,12668.00
2018-02-19T12:24:39.376Z,13000.00
2018-02-19T12:25:39.347Z,14432.00
2018-02-19T12:26:39.330Z,11644.00
2018-02-19T12:27:39.321Z,10296.00
2018-02-19T12:28:39.335Z,9168.00
2018-02-19T12:29:39.286Z,8600.00
2018-02-19T12:30:39.293Z,8044.00
2018-02-19T12:31:39.259Z,7528.00
2018-02-19T12:32:39.240Z,7416.00
2018-02-19T12:33:39.228Z,7400.00
2018-02-19T12:34:39.213Z,7364.00
2018-02-19T12:35:39.197Z,7308.00
2018-02-19T12:36:39.208Z,7208.00
2018-02-19T12:37:39.173Z,7112.00
2018-02-19T12:38:39.144Z,7032.00
2018-02-19T12:39:39.140Z,6956.00
2018-02-19T12:40:39.129Z,6968.00
2018-02-19T12:41:39.122Z,7044.00